Time;durP1;ratioP1;P1;durP2;ratioP2;P2;SDS_P1;SDS_P2;PMS_P1;PMS_P2;Temp;Humidity;BMP_temperature;BMP_pressure;BME280_temperature;BME280_humidity;BME280_pressure;Samples;Min_cycle;Max_cycle;Signal;HPM_P1;HPM_P2
2023/07/21 00:00:18;;;;;;;10.50;4.30;;;18.20;64.20;;;;;;5108185;28;20556;-90
2023/07/21 00:02:46;;;;;;;7.72;4.30;;;18.10;66.10;;;;;;5105989;28;20188;-92
2023/07/21 00:05:15;;;;;;;6.88;4.38;;;18.00;66.40;;;;;;5083006;28;20243;-91
2023/07/21 00:07:42;;;;;;;6.53;4.22;;;17.90;67.30;;;;;;5079396;28;20188;-92
2023/07/21 00:10:11;;;;;;;6.88;4.32;;;17.90;68.20;;;;;;5103049;28;20218;-93
2023/07/21 00:12:40;;;;;;;5.82;4.10;;;18.00;67.00;;;;;;5085528;28;20996;-91
2023/07/21 00:15:08;;;;;;;6.30;4.45;;;18.10;65.80;;;;;;5079158;28;20204;-92
2023/07/21 00:20:22;;;;;;;7.07;3.97;;;18.10;66.80;;;;;;5107147;28;20202;-92
2023/07/21 00:22:49;;;;;;;5.50;3.95;;;17.90;67.20;;;;;;5107381;28;20204;-93
2023/07/21 00:25:16;;;;;;;6.95;4.57;;;17.80;70.60;;;;;;5091133;28;20208;-91
2023/07/21 00:30:53;;;;;;;7.45;4.30;;;17.60;72.00;;;;;;5123722;27;20613;-89
2023/07/21 00:33:22;;;;;;;6.10;4.18;;;17.40;75.00;;;;;;5097189;28;20281;-88
2023/07/21 00:35:49;;;;;;;5.97;4.10;;;17.40;76.50;;;;;;5115726;28;20282;-88
2023/07/21 00:38:16;;;;;;;7.70;4.57;;;17.30;77.90;;;;;;5085547;28;20196;-89
2023/07/21 00:40:43;;;;;;;4.82;3.90;;;17.30;78.90;;;;;;5093799;28;20326;-87
2023/07/21 00:43:16;;;;;;;7.07;4.35;;;17.30;78.90;;;;;;5106485;28;20659;-89
2023/07/21 00:45:43;;;;;;;9.10;4.40;;;17.20;79.50;;;;;;5107198;28;20709;-89
2023/07/21 00:50:54;;;;;;;5.68;4.10;;;17.00;80.40;;;;;;5107240;28;20219;-86
2023/07/21 00:53:22;;;;;;;4.05;3.70;;;17.00;81.30;;;;;;5090870;28;20244;-87
2023/07/21 00:55:52;;;;;;;5.65;4.53;;;16.90;82.50;;;;;;5104295;28;20204;-88
2023/07/21 00:58:22;;;;;;;6.35;4.30;;;17.00;82.80;;;;;;5065234;28;20208;-88
2023/07/21 01:00:50;;;;;;;5.68;4.05;;;17.00;83.50;;;;;;5083547;28;20211;-88
2023/07/21 01:03:19;;;;;;;8.60;4.60;;;17.00;84.60;;;;;;5105850;28;20196;-88
2023/07/21 01:05:54;;;;;;;6.95;4.43;;;17.00;84.40;;;;;;5099347;28;20199;-88
2023/07/21 01:08:42;;;;;;;5.28;4.45;;;17.00;84.30;;;;;;5105034;28;20707;-87
2023/07/21 01:11:10;;;;;;;4.93;3.92;;;17.10;84.40;;;;;;5088462;28;20192;-86
2023/07/21 01:13:39;;;;;;;5.25;3.90;;;17.10;84.70;;;;;;5103898;28;20869;-87
2023/07/21 01:16:08;;;;;;;5.57;4.20;;;17.10;84.80;;;;;;5087622;28;20223;-89
2023/07/21 01:18:38;;;;;;;6.07;4.35;;;17.10;84.70;;;;;;5101791;28;20231;-87
2023/07/21 01:21:06;;;;;;;6.80;4.18;;;17.00;85.50;;;;;;5103378;28;20218;-88
2023/07/21 01:23:43;;;;;;;8.05;4.15;;;17.10;85.10;;;;;;5103203;28;20232;-90
2023/07/21 01:26:14;;;;;;;6.72;3.95;;;17.20;84.70;;;;;;5095909;28;20630;-88
2023/07/21 01:28:42;;;;;;;6.72;4.40;;;17.20;84.60;;;;;;5105323;28;20208;-87
2023/07/21 01:31:10;;;;;;;7.45;4.05;;;17.20;84.20;;;;;;5108139;28;20203;-88
2023/07/21 01:33:51;;;;;;;6.75;4.13;;;17.10;84.80;;;;;;5107895;28;20207;-87
2023/07/21 01:36:19;;;;;;;5.63;3.88;;;17.00;85.50;;;;;;5103242;28;20211;-89
2023/07/21 01:38:47;;;;;;;6.63;4.20;;;17.00;86.10;;;;;;5101754;28;20856;-89
2023/07/21 01:41:18;;;;;;;6.00;4.22;;;17.00;86.60;;;;;;5092088;28;20224;-88
2023/07/21 01:43:46;;;;;;;7.03;4.15;;;17.00;86.30;;;;;;5086944;28;20645;-89
2023/07/21 01:46:13;;;;;;;5.10;3.97;;;17.10;86.00;;;;;;5097909;28;20219;-87
2023/07/21 01:48:41;;;;;;;5.22;4.30;;;17.20;85.50;;;;;;5070922;28;20292;-88
2023/07/21 01:51:08;;;;;;;5.00;3.90;;;17.20;85.80;;;;;;5093232;28;20201;-89
2023/07/21 01:53:38;;;;;;;5.40;4.28;;;17.20;85.50;;;;;;5080860;28;20212;-87
2023/07/21 01:56:10;;;;;;;4.70;3.75;;;17.20;84.80;;;;;;5093792;28;20545;-88
2023/07/21 02:01:23;;;;;;;5.03;3.60;;;17.20;84.90;;;;;;5087015;28;20222;-87
2023/07/21 02:03:50;;;;;;;5.35;3.65;;;17.30;85.20;;;;;;5086054;28;20665;-89
2023/07/21 02:06:18;;;;;;;6.53;4.53;;;17.20;84.50;;;;;;5090248;28;20189;-87
2023/07/21 02:08:45;;;;;;;6.57;4.45;;;17.20;85.80;;;;;;5092967;28;20641;-86
2023/07/21 02:11:12;;;;;;;4.97;3.70;;;17.20;85.10;;;;;;5093564;28;20284;-89
2023/07/21 02:16:21;;;;;;;5.18;4.18;;;17.20;85.20;;;;;;5088188;28;20196;-86
2023/07/21 02:18:49;;;;;;;4.72;4.13;;;17.20;85.00;;;;;;5091783;28;20220;-89
2023/07/21 02:21:16;;;;;;;4.35;3.95;;;17.30;84.90;;;;;;5094056;28;20562;-89
2023/07/21 02:23:43;;;;;;;6.20;4.10;;;17.30;85.10;;;;;;5092723;28;20211;-89
2023/07/21 02:26:10;;;;;;;4.85;4.28;;;17.20;85.40;;;;;;5089143;28;20211;-88
2023/07/21 02:28:36;;;;;;;6.85;4.30;;;17.20;84.90;;;;;;5088761;28;20204;-87
2023/07/21 02:33:46;;;;;;;8.00;3.78;;;17.10;85.70;;;;;;5081149;28;20236;-88
2023/07/21 02:36:14;;;;;;;10.02;4.10;;;17.10;86.10;;;;;;5084219;28;20212;-88
2023/07/21 02:38:41;;;;;;;5.72;4.22;;;17.00;87.40;;;;;;5086157;28;20231;-86
2023/07/21 02:41:09;;;;;;;4.57;4.13;;;16.90;88.40;;;;;;5089153;28;20196;-88
2023/07/21 02:43:36;;;;;;;8.82;4.15;;;16.70;89.20;;;;;;5087831;28;20204;-88
2023/07/21 02:46:05;;;;;;;5.88;4.13;;;16.60;90.50;;;;;;5082965;28;20196;-88
2023/07/21 02:51:14;;;;;;;7.97;4.10;;;16.60;90.60;;;;;;5086022;28;20584;-90
2023/07/21 02:53:41;;;;;;;4.43;4.00;;;16.60;91.10;;;;;;5088821;28;20569;-88
2023/07/21 02:56:08;;;;;;;4.75;4.05;;;16.50;91.50;;;;;;5089389;28;20194;-89
2023/07/21 02:58:36;;;;;;;7.95;4.00;;;16.50;91.80;;;;;;5078202;28;20207;-87
2023/07/21 03:01:09;;;;;;;6.47;4.40;;;16.40;91.80;;;;;;5087371;28;20208;-89
2023/07/21 03:03:37;;;;;;;5.22;4.13;;;16.40;91.80;;;;;;5088967;28;20533;-89
2023/07/21 03:06:04;;;;;;;5.60;4.38;;;16.30;91.80;;;;;;5082612;28;20206;-89
2023/07/21 03:08:32;;;;;;;4.72;3.75;;;16.40;92.00;;;;;;5088856;28;20200;-87
2023/07/21 03:10:59;;;;;;;5.90;3.83;;;16.30;92.20;;;;;;5083420;28;20217;-88
2023/07/21 03:13:26;;;;;;;6.68;4.25;;;16.40;92.30;;;;;;5083606;28;20211;-87
2023/07/21 03:15:53;;;;;;;6.45;4.30;;;16.40;92.60;;;;;;5085990;28;20559;-88
2023/07/21 03:21:03;;;;;;;4.95;3.88;;;16.60;92.10;;;;;;5085235;28;20205;-89
2023/07/21 03:23:31;;;;;;;6.78;4.18;;;16.60;91.80;;;;;;5092004;28;20291;-88
2023/07/21 03:25:59;;;;;;;5.25;4.03;;;16.60;91.80;;;;;;5086893;28;20221;-87
2023/07/21 03:28:29;;;;;;;6.15;3.95;;;16.50;92.10;;;;;;5092112;28;20201;-88
2023/07/21 03:31:00;;;;;;;6.00;4.03;;;16.40;92.50;;;;;;5090492;28;20209;-87
2023/07/21 03:33:29;;;;;;;4.50;3.70;;;16.50;92.50;;;;;;5071986;28;20200;-88
2023/07/21 03:36:01;;;;;;;5.57;4.00;;;16.60;92.10;;;;;;5086239;28;20209;-88
2023/07/21 03:38:30;;;;;;;4.55;3.70;;;16.60;91.80;;;;;;5079691;28;20256;-89
2023/07/21 03:41:02;;;;;;;5.30;3.90;;;16.70;91.90;;;;;;5086036;28;20205;-87
2023/07/21 03:43:33;;;;;;;5.28;4.00;;;16.70;91.90;;;;;;5092128;28;20602;-89
2023/07/21 03:46:20;;;;;;;4.57;3.95;;;16.70;91.90;;;;;;5088984;28;20223;-87
2023/07/21 03:48:50;;;;;;;5.45;4.07;;;16.60;91.80;;;;;;5096159;28;20199;-87
2023/07/21 03:51:17;;;;;;;8.50;4.10;;;16.60;91.80;;;;;;5089266;28;20265;-89
2023/07/21 03:53:44;;;;;;;4.95;3.80;;;16.50;91.80;;;;;;5091917;28;20201;-88
2023/07/21 03:56:11;;;;;;;6.85;4.03;;;16.50;91.80;;;;;;5085541;28;20207;-87
2023/07/21 03:58:38;;;;;;;4.53;3.92;;;16.30;92.30;;;;;;5099370;28;20209;-86
2023/07/21 04:01:05;;;;;;;5.65;4.38;;;16.40;92.60;;;;;;5073288;28;20251;-87
2023/07/21 04:04:00;;;;;;;5.38;4.13;;;16.50;91.80;;;;;;5081570;28;20199;-86
2023/07/21 04:06:47;;;;;;;5.93;3.92;;;16.40;91.80;;;;;;5083346;28;20280;-89
2023/07/21 04:09:14;;;;;;;5.80;3.72;;;16.40;91.80;;;;;;5092108;28;20192;-88
2023/07/21 04:11:41;;;;;;;7.47;4.63;;;16.30;92.20;;;;;;5083164;28;20233;-86
2023/07/21 04:14:09;;;;;;;7.70;4.22;;;16.30;92.40;;;;;;5090294;28;20537;-87
2023/07/21 04:16:56;;;;;;;4.90;3.95;;;16.30;92.90;;;;;;5087179;28;20204;-89
2023/07/21 04:19:26;;;;;;;6.13;4.03;;;16.40;92.60;;;;;;5083127;28;20303;-89
2023/07/21 04:21:53;;;;;;;6.30;3.50;;;16.50;92.40;;;;;;5079486;28;20197;-89
2023/07/21 04:24:23;;;;;;;6.20;3.80;;;16.60;91.80;;;;;;5090006;28;20219;-86
2023/07/21 04:26:50;;;;;;;6.05;3.92;;;16.80;91.50;;;;;;5086162;28;20632;-88
2023/07/21 04:29:17;;;;;;;7.55;4.00;;;16.90;91.90;;;;;;5088602;28;20657;-88
2023/07/21 04:31:44;;;;;;;4.45;4.00;;;17.00;90.70;;;;;;5085415;28;20312;-88
2023/07/21 04:34:11;;;;;;;7.43;4.07;;;16.90;91.40;;;;;;5090101;28;20196;-90
2023/07/21 04:39:21;;;;;;;4.20;3.80;;;17.00;91.00;;;;;;5083543;28;20196;-87
2023/07/21 04:41:48;;;;;;;3.97;3.58;;;17.10;90.80;;;;;;5080350;28;20651;-90
2023/07/21 04:44:15;;;;;;;7.38;3.97;;;17.20;90.30;;;;;;5084135;28;20293;-88
2023/07/21 04:46:43;;;;;;;7.78;4.07;;;17.20;89.70;;;;;;5082906;28;20196;-89
2023/07/21 04:49:13;;;;;;;3.90;3.60;;;17.30;90.10;;;;;;5093757;28;20193;-88
2023/07/21 04:51:43;;;;;;;5.05;3.60;;;17.30;90.10;;;;;;5066181;28;20243;-88
2023/07/21 04:54:11;;;;;;;5.55;4.30;;;17.20;90.20;;;;;;5089726;28;20204;-87
2023/07/21 04:56:40;;;;;;;7.45;4.05;;;17.20;90.60;;;;;;5084264;28;20201;-90
2023/07/21 04:59:28;;;;;;;4.88;4.25;;;17.30;90.90;;;;;;5106870;28;20249;-89
2023/07/21 05:13:06;;;;;;;7.72;4.10;;;17.70;88.80;;;;;;5093357;28;20189;-93
2023/07/21 05:18:15;;;;;;;6.90;4.15;;;17.70;88.60;;;;;;5118309;28;20203;-91
2023/07/21 05:26:27;;;;;;;8.05;3.67;;;17.70;89.80;;;;;;5056816;28;20201;-94
2023/07/21 05:28:55;;;;;;;3.92;3.53;;;17.70;90.00;;;;;;5073051;28;20231;-94
2023/07/21 05:31:22;;;;;;;7.60;4.15;;;17.70;90.10;;;;;;5086645;28;20346;-93
2023/07/21 05:36:31;;;;;;;7.30;4.00;;;18.00;88.40;;;;;;5067796;28;20209;-93
2023/07/21 05:39:00;;;;;;;4.90;3.92;;;18.10;86.50;;;;;;5088258;28;20733;-92
2023/07/21 05:41:27;;;;;;;6.30;3.80;;;18.30;85.10;;;;;;5064150;28;20215;-93
2023/07/21 05:43:54;;;;;;;5.78;3.70;;;18.30;84.70;;;;;;5082308;28;20654;-93
2023/07/21 05:46:21;;;;;;;4.65;3.80;;;18.30;85.10;;;;;;5061370;28;20205;-93
2023/07/21 05:48:48;;;;;;;4.60;3.80;;;18.30;85.50;;;;;;5069129;28;20686;-93
2023/07/21 05:53:56;;;;;;;4.45;3.72;;;18.50;85.50;;;;;;5067561;28;20794;-93
2023/07/21 05:56:24;;;;;;;5.68;4.00;;;18.50;85.50;;;;;;5076293;28;20208;-92
2023/07/21 05:58:51;;;;;;;5.70;3.90;;;18.40;88.30;;;;;;5074619;28;20574;-92
2023/07/21 06:01:20;;;;;;;3.85;3.47;;;18.50;88.50;;;;;;5062456;28;20560;-93
2023/07/21 06:03:48;;;;;;;6.82;4.28;;;18.60;88.20;;;;;;5061049;28;20695;-90
2023/07/21 06:06:14;;;;;;;7.43;3.90;;;18.70;89.40;;;;;;5062513;28;20193;-89
2023/07/21 06:08:42;;;;;;;9.95;4.30;;;18.80;89.60;;;;;;5051593;28;21005;-89
2023/07/21 06:11:08;;;;;;;4.63;3.80;;;19.00;85.30;;;;;;5076387;28;20943;-87
2023/07/21 06:13:37;;;;;;;5.07;3.90;;;19.40;82.10;;;;;;5072792;28;20703;-89
2023/07/21 06:16:04;;;;;;;6.53;3.83;;;19.60;80.50;;;;;;5055573;28;20209;-89
2023/07/21 06:18:32;;;;;;;5.85;4.00;;;19.70;79.30;;;;;;5056917;28;20222;-87
2023/07/21 06:20:59;;;;;;;5.53;4.28;;;19.70;80.60;;;;;;5043358;28;20202;-88
2023/07/21 06:23:26;;;;;;;4.97;4.00;;;19.60;80.50;;;;;;5052324;28;20199;-86
2023/07/21 06:25:54;;;;;;;4.97;4.00;;;19.70;80.60;;;;;;5051977;28;20198;-89
2023/07/21 06:28:21;;;;;;;4.97;4.00;;;19.90;75.60;;;;;;5036856;28;20670;-88
2023/07/21 06:30:50;;;;;;;6.78;4.15;;;20.00;76.10;;;;;;5044311;28;20313;-89
2023/07/21 06:33:16;;;;;;;5.07;3.95;;;20.00;75.30;;;;;;5043101;28;20301;-88
2023/07/21 06:35:43;;;;;;;6.57;3.95;;;20.00;73.10;;;;;;5045790;28;20549;-90
2023/07/21 06:38:10;;;;;;;7.97;4.40;;;20.00;72.70;;;;;;5052406;28;20200;-89
2023/07/21 06:40:37;;;;;;;6.05;4.20;;;20.10;70.00;;;;;;5051406;28;20263;-90
2023/07/21 06:43:04;;;;;;;5.97;4.18;;;19.90;75.00;;;;;;5027530;28;20194;-89
2023/07/21 06:45:33;;;;;;;8.07;3.97;;;19.90;74.70;;;;;;5051076;28;20207;-89
2023/07/21 06:48:01;;;;;;;5.80;3.50;;;19.90;73.30;;;;;;5057359;28;20216;-90
2023/07/21 06:50:28;;;;;;;5.78;4.10;;;19.90;74.00;;;;;;5051463;28;20217;-90
2023/07/21 06:52:55;;;;;;;5.13;3.88;;;19.80;76.50;;;;;;5037718;28;20205;-89
2023/07/21 06:55:22;;;;;;;5.50;3.95;;;19.90;75.90;;;;;;5054691;28;20198;-89
2023/07/21 06:57:49;;;;;;;7.10;4.10;;;20.00;75.40;;;;;;5048153;28;20190;-88
2023/07/21 07:00:16;;;;;;;6.25;4.30;;;20.00;75.00;;;;;;5054297;28;20208;-89
2023/07/21 07:02:47;;;;;;;4.95;4.13;;;20.10;73.50;;;;;;5031765;28;20193;-89
2023/07/21 07:05:16;;;;;;;9.55;4.07;;;20.20;71.60;;;;;;5051039;28;20202;-89
2023/07/21 07:07:43;;;;;;;7.82;4.00;;;20.40;71.30;;;;;;5051003;28;20224;-89
2023/07/21 07:10:10;;;;;;;4.90;4.00;;;20.40;70.60;;;;;;5052527;28;20289;-88
2023/07/21 07:12:38;;;;;;;4.85;3.58;;;20.40;72.90;;;;;;5053469;28;20212;-89
2023/07/21 07:15:09;;;;;;;10.90;4.43;;;20.60;69.50;;;;;;5046254;28;20194;-89
2023/07/21 07:17:36;;;;;;;9.02;4.32;;;20.70;67.20;;;;;;5044148;28;20218;-89
2023/07/21 07:20:04;;;;;;;5.90;3.88;;;20.90;69.00;;;;;;5043713;28;20213;-89
2023/07/21 07:22:34;;;;;;;8.00;4.00;;;21.10;63.00;;;;;;5034373;28;20332;-89
2023/07/21 07:25:01;;;;;;;7.03;4.20;;;21.20;62.00;;;;;;5050038;28;20217;-89
2023/07/21 07:27:28;;;;;;;4.95;3.60;;;21.10;63.60;;;;;;5050424;28;20247;-88
2023/07/21 07:29:55;;;;;;;4.95;3.90;;;21.00;66.90;;;;;;5051125;28;20198;-89
2023/07/21 07:32:22;;;;;;;6.93;3.70;;;21.00;64.70;;;;;;5047956;28;20225;-89
2023/07/21 07:34:49;;;;;;;7.80;4.07;;;20.90;64.50;;;;;;5050403;28;20208;-93
2023/07/21 07:37:16;;;;;;;5.70;3.90;;;20.80;64.90;;;;;;5039979;28;20209;-93
2023/07/21 07:42:26;;;;;;;5.65;4.15;;;21.00;60.30;;;;;;5057848;28;20197;-94
2023/07/21 07:45:00;;;;;;;4.93;3.60;;;21.00;64.60;;;;;;5032729;28;20222;-90
2023/07/21 07:53:37;;;;;;;4.18;3.78;;;21.20;61.00;;;;;;5036220;28;20198;-90
2023/07/21 07:56:29;;;;;;;8.50;4.00;;;21.20;59.60;;;;;;5028367;28;20206;-92
2023/07/21 07:59:15;;;;;;;10.95;4.18;;;21.20;61.50;;;;;;5039384;28;20203;-92
2023/07/21 08:01:53;;;;;;;8.48;3.90;;;21.20;60.20;;;;;;5041344;28;20261;-91
2023/07/21 08:04:28;;;;;;;5.25;4.07;;;21.20;61.20;;;;;;5029704;28;20201;-91
2023/07/21 08:13:48;;;;;;;5.55;3.67;;;21.20;56.90;;;;;;5056963;28;20246;-91
2023/07/21 08:16:18;;;;;;;6.95;3.90;;;21.30;57.10;;;;;;5028476;28;20209;-89
2023/07/21 08:19:05;;;;;;;5.15;3.55;;;21.20;57.80;;;;;;5041063;28;20245;-90
2023/07/21 08:24:41;;;;;;;4.75;3.42;;;21.20;57.00;;;;;;5037135;28;20276;-90
2023/07/21 08:32:34;;;;;;;4.13;3.65;;;21.00;58.30;;;;;;5066593;28;20241;-92
2023/07/21 08:35:01;;;;;;;7.97;3.72;;;21.00;56.90;;;;;;5054013;28;20254;-89
2023/07/21 08:37:28;;;;;;;6.68;3.67;;;21.00;59.40;;;;;;5051347;28;20202;-91
2023/07/21 08:40:22;;;;;;;4.93;4.05;;;21.00;56.80;;;;;;5067267;28;20201;-89
2023/07/21 08:42:50;;;;;;;6.13;3.67;;;21.00;56.80;;;;;;5047575;28;20200;-89
2023/07/21 08:53:30;;;;;;;8.52;3.83;;;21.20;53.00;;;;;;5087342;28;20209;-89
2023/07/21 08:55:58;;;;;;;5.53;3.83;;;21.10;53.10;;;;;;5058172;28;20201;-93
2023/07/21 08:58:25;;;;;;;5.45;4.07;;;21.10;53.90;;;;;;5046530;28;20208;-88
2023/07/21 09:03:46;;;;;;;5.43;3.83;;;21.10;55.20;;;;;;5071878;28;20190;-90
2023/07/21 09:06:20;;;;;;;6.35;3.63;;;21.30;53.60;;;;;;5041820;28;20202;-93
2023/07/21 09:08:48;;;;;;;5.85;3.95;;;21.40;52.90;;;;;;5056418;28;20197;-92
2023/07/21 09:11:16;;;;;;;4.28;3.30;;;21.60;51.40;;;;;;5065933;28;20215;-93
2023/07/21 09:16:35;;;;;;;3.08;2.80;;;21.90;52.40;;;;;;5036980;28;20206;-91
2023/07/21 11:20:52;;;;;;;4.25;2.80;;;25.40;25.30;;;;;;5087432;26;20222;-92
2023/07/21 11:32:12;;;;;;;4.75;3.00;;;25.90;31.90;;;;;;5697555;22;20224;-92
2023/07/21 11:34:39;;;;;;;2.95;2.65;;;26.00;25.00;;;;;;5055694;28;20206;-89
2023/07/21 11:39:56;;;;;;;4.72;3.38;;;26.30;21.30;;;;;;5057499;28;20189;-89
2023/07/21 11:42:24;;;;;;;3.35;3.05;;;26.40;25.30;;;;;;5063040;28;20201;-90
2023/07/21 11:44:52;;;;;;;3.42;2.83;;;26.70;21.90;;;;;;5066239;28;20198;-90
2023/07/21 11:47:19;;;;;;;3.67;3.03;;;26.50;21.90;;;;;;5062068;28;20190;-90
2023/07/21 11:49:47;;;;;;;3.63;2.70;;;26.10;23.40;;;;;;5064473;28;20952;-90
2023/07/21 11:52:24;;;;;;;3.28;2.97;;;25.80;24.90;;;;;;5063045;28;20237;-90
2023/07/21 11:54:52;;;;;;;3.47;3.10;;;25.60;27.10;;;;;;5062722;28;20220;-89
2023/07/21 11:57:19;;;;;;;4.55;2.92;;;25.60;26.10;;;;;;5068404;28;20201;-89
2023/07/21 11:59:46;;;;;;;4.05;3.15;;;25.50;24.80;;;;;;5057077;28;20204;-91
2023/07/21 12:02:16;;;;;;;3.78;2.80;;;25.40;23.90;;;;;;5065406;28;20189;-91
2023/07/21 12:04:43;;;;;;;4.22;3.10;;;25.70;23.90;;;;;;5066813;28;20174;-92
2023/07/21 12:07:10;;;;;;;3.60;2.92;;;26.00;23.70;;;;;;5067587;28;20206;-87
2023/07/21 12:09:39;;;;;;;4.07;3.08;;;26.30;21.10;;;;;;5064456;28;20204;-89
2023/07/21 12:12:07;;;;;;;3.50;3.00;;;26.60;22.90;;;;;;5064310;28;20198;-90
2023/07/21 12:14:34;;;;;;;3.05;2.80;;;26.50;21.50;;;;;;5061586;28;20258;-89
2023/07/21 12:17:01;;;;;;;4.80;2.90;;;26.50;21.80;;;;;;5060987;28;20198;-90
2023/07/21 12:19:28;;;;;;;5.50;3.00;;;26.50;22.00;;;;;;5053177;28;20217;-89
2023/07/21 12:21:55;;;;;;;4.47;3.05;;;26.60;20.30;;;;;;5046318;28;20292;-92
2023/07/21 12:24:22;;;;;;;4.78;3.13;;;26.50;21.80;;;;;;5046964;28;20204;-91
2023/07/21 12:26:51;;;;;;;5.63;3.20;;;26.50;22.50;;;;;;5052003;28;20213;-91
2023/07/21 12:29:20;;;;;;;3.70;3.00;;;26.20;21.40;;;;;;5050700;28;20262;-91
2023/07/21 12:31:47;;;;;;;4.03;2.97;;;25.90;22.20;;;;;;5063187;28;20228;-90
2023/07/21 12:34:14;;;;;;;4.45;2.83;;;25.60;24.30;;;;;;5055262;28;20214;-90
2023/07/21 12:36:41;;;;;;;6.72;2.63;;;25.80;22.50;;;;;;5070870;28;20194;-91
2023/07/21 12:39:10;;;;;;;3.65;2.88;;;26.10;19.70;;;;;;5071685;28;20304;-90
2023/07/21 12:41:36;;;;;;;4.57;3.10;;;25.90;19.70;;;;;;5054470;28;20209;-90
2023/07/21 12:44:05;;;;;;;3.22;2.92;;;26.00;18.60;;;;;;5070307;28;20194;-90
2023/07/21 12:46:32;;;;;;;4.10;2.50;;;26.20;18.60;;;;;;5072902;28;20202;-88
2023/07/21 12:48:59;;;;;;;3.88;2.50;;;26.30;19.50;;;;;;5069408;28;20193;-91
2023/07/21 12:51:26;;;;;;;3.30;3.00;;;25.90;21.90;;;;;;5471939;22;20233;-91
2023/07/21 12:56:31;;;;;;;4.78;3.25;;;25.30;24.00;;;;;;5140567;22;20236;-91
2023/07/21 12:58:59;;;;;;;3.40;2.88;;;24.80;24.30;;;;;;5060256;28;20201;-89
2023/07/21 13:01:29;;;;;;;3.10;2.80;;;24.60;24.10;;;;;;5072780;28;20201;-90
2023/07/21 13:03:56;;;;;;;3.63;2.80;;;24.20;27.60;;;;;;5044995;28;20193;-89
2023/07/21 13:06:23;;;;;;;3.55;2.90;;;23.90;28.00;;;;;;5068393;28;20198;-89
2023/07/21 13:08:50;;;;;;;3.03;2.72;;;23.60;29.20;;;;;;5071844;28;20251;-85
2023/07/21 13:11:17;;;;;;;3.85;2.55;;;23.40;31.60;;;;;;5067523;28;20205;-88
2023/07/21 13:13:46;;;;;;;3.13;2.88;;;23.10;34.70;;;;;;5047844;28;20225;-86
2023/07/21 13:16:13;;;;;;;3.83;2.95;;;22.90;37.30;;;;;;5059421;28;20558;-85
2023/07/21 13:18:42;;;;;;;3.58;3.05;;;22.60;44.60;;;;;;5059653;28;20225;-85
2023/07/21 13:21:09;;;;;;;4.47;3.28;;;22.40;49.70;;;;;;5047351;28;20205;-85
2023/07/21 13:23:35;;;;;;;4.55;3.00;;;22.30;51.50;;;;;;5062928;28;20561;-85
2023/07/21 13:26:02;;;;;;;4.97;3.00;;;22.00;54.20;;;;;;5047844;28;20208;-87
2023/07/21 13:28:29;;;;;;;4.68;3.45;;;21.60;57.40;;;;;;5061592;28;20236;-84
2023/07/21 13:30:56;;;;;;;6.57;3.30;;;21.30;67.70;;;;;;5065155;28;20299;-85
2023/07/21 13:33:23;;;;;;;5.63;3.40;;;21.00;75.70;;;;;;5066572;28;20559;-85
2023/07/21 13:35:51;;;;;;;4.63;3.33;;;21.10;78.20;;;;;;5060329;28;20210;-86
2023/07/21 13:38:18;;;;;;;3.53;3.00;;;21.20;76.70;;;;;;5060403;28;20197;-82
2023/07/21 13:40:45;;;;;;;3.85;2.85;;;21.40;73.00;;;;;;5062317;28;21872;-87
2023/07/21 13:43:12;;;;;;;3.67;3.00;;;21.70;66.00;;;;;;5044566;28;20197;-86
2023/07/21 13:45:39;;;;;;;4.18;3.17;;;21.90;59.00;;;;;;5058246;28;20251;-84
2023/07/21 13:48:07;;;;;;;3.88;2.88;;;22.10;62.80;;;;;;5064227;28;20198;-85
2023/07/21 13:50:34;;;;;;;3.67;2.75;;;22.20;62.20;;;;;;5064666;28;20201;-86
2023/07/21 13:53:02;;;;;;;5.68;2.67;;;22.20;57.80;;;;;;5063193;28;20216;-85
2023/07/21 13:55:29;;;;;;;7.35;5.50;;;22.40;58.20;;;;;;5066947;28;20213;-85
2023/07/21 13:57:56;;;;;;;6.72;3.60;;;22.50;55.40;;;;;;5065038;28;20594;-85
2023/07/21 14:00:24;;;;;;;3.85;3.05;;;22.60;50.80;;;;;;5068153;28;20201;-86
2023/07/21 14:02:51;;;;;;;4.07;3.08;;;22.80;51.50;;;;;;5042275;28;20194;-84
2023/07/21 14:05:18;;;;;;;4.00;2.70;;;23.00;46.90;;;;;;5068018;28;21072;-86
2023/07/21 14:07:45;;;;;;;2.72;2.50;;;23.40;40.20;;;;;;5065911;28;20250;-86
2023/07/21 14:10:14;;;;;;;3.22;2.67;;;23.40;37.60;;;;;;5066194;28;20197;-86
2023/07/21 14:12:42;;;;;;;3.58;2.60;;;23.30;39.00;;;;;;5062865;28;20225;-85
2023/07/21 14:15:12;;;;;;;2.97;2.53;;;23.10;41.30;;;;;;5048832;28;20198;-86
2023/07/21 14:17:39;;;;;;;3.47;3.13;;;22.90;46.80;;;;;;5066790;28;20212;-85
2023/07/21 14:20:09;;;;;;;3.03;2.70;;;22.80;41.90;;;;;;5069095;28;20198;-83
2023/07/21 14:22:35;;;;;;;4.00;2.85;;;22.60;44.50;;;;;;5064862;28;20194;-85
2023/07/21 14:25:03;;;;;;;3.92;3.17;;;22.60;45.70;;;;;;5062859;28;20711;-84
2023/07/21 14:27:31;;;;;;;6.80;3.15;;;22.40;44.80;;;;;;5060023;28;20284;-85
2023/07/21 14:29:58;;;;;;;3.45;2.92;;;22.20;48.70;;;;;;5060446;28;20224;-86
2023/07/21 14:32:25;;;;;;;2.92;2.67;;;22.20;49.30;;;;;;5064885;28;20303;-83
2023/07/21 14:34:52;;;;;;;5.15;3.10;;;22.20;48.80;;;;;;5067569;28;20196;-86
2023/07/21 14:37:19;;;;;;;3.38;3.00;;;22.20;45.90;;;;;;5065254;28;20242;-84
2023/07/21 14:39:46;;;;;;;4.93;3.00;;;22.20;47.20;;;;;;5062704;28;20201;-84
2023/07/21 14:42:14;;;;;;;4.50;3.20;;;22.20;49.70;;;;;;5063276;28;20595;-84
2023/07/21 14:44:42;;;;;;;3.70;3.00;;;22.20;44.70;;;;;;5065033;28;20197;-86
2023/07/21 14:47:09;;;;;;;4.65;2.97;;;22.20;47.60;;;;;;5060886;28;20248;-84
2023/07/21 14:49:36;;;;;;;5.15;3.08;;;22.40;49.50;;;;;;5064330;28;20199;-84
2023/07/21 14:52:03;;;;;;;4.10;2.72;;;22.60;47.00;;;;;;5061921;28;20758;-85
2023/07/21 14:54:30;;;;;;;4.22;2.90;;;22.70;45.30;;;;;;5061459;28;20228;-84
2023/07/21 14:56:57;;;;;;;3.10;2.80;;;22.70;45.40;;;;;;5063139;28;20197;-88
2023/07/21 14:59:24;;;;;;;3.95;3.38;;;22.60;46.20;;;;;;5063127;28;20661;-88
2023/07/21 15:01:52;;;;;;;5.55;2.95;;;22.60;47.90;;;;;;5066091;28;20287;-89
2023/07/21 15:04:21;;;;;;;5.35;2.80;;;22.40;50.00;;;;;;5067789;28;20323;-88
2023/07/21 15:06:48;;;;;;;5.60;3.17;;;22.20;52.90;;;;;;5064451;28;20204;-84
2023/07/21 15:09:15;;;;;;;6.00;3.72;;;22.10;55.50;;;;;;5068058;28;20254;-83
2023/07/21 15:11:42;;;;;;;16.52;4.55;;;21.90;53.80;;;;;;5066908;28;20201;-84
2023/07/21 15:14:09;;;;;;;9.02;5.07;;;20.90;67.80;;;;;;5034710;28;20230;-83
2023/07/21 15:16:36;;;;;;;8.23;3.85;;;19.70;79.70;;;;;;5022031;28;20210;-84
2023/07/21 15:19:04;;;;;;;7.63;4.50;;;18.90;87.00;;;;;;5030584;28;20218;-82
2023/07/21 15:21:31;;;;;;;5.95;4.00;;;18.30;88.30;;;;;;5028766;28;20206;-86
2023/07/21 15:23:58;;;;;;;6.10;4.28;;;18.10;91.30;;;;;;5025039;28;20238;-81
2023/07/21 15:26:25;;;;;;;6.15;3.90;;;18.00;92.20;;;;;;5024934;28;20203;-84
2023/07/21 15:28:52;;;;;;;5.00;3.92;;;17.80;92.10;;;;;;5023187;28;20283;-82
2023/07/21 15:31:19;;;;;;;4.25;3.85;;;17.70;94.10;;;;;;5022558;28;20202;-84
2023/07/21 15:33:47;;;;;;;7.40;4.22;;;17.60;94.50;;;;;;5027154;28;20297;-82
2023/07/21 15:36:15;;;;;;;5.28;4.10;;;17.40;94.10;;;;;;5026031;28;20770;-82
2023/07/21 15:38:42;;;;;;;5.40;4.00;;;17.40;95.50;;;;;;5021997;28;20199;-85
2023/07/21 15:41:09;;;;;;;8.23;4.53;;;17.40;96.60;;;;;;5026099;28;20202;-83
2023/07/21 15:43:36;;;;;;;5.40;4.05;;;17.50;96.70;;;;;;5024579;28;20206;-83
2023/07/21 15:46:02;;;;;;;4.53;3.85;;;17.60;97.40;;;;;;5028405;28;20571;-82
2023/07/21 15:48:30;;;;;;;4.43;3.63;;;17.80;96.90;;;;;;5031186;28;20209;-84
2023/07/21 15:50:57;;;;;;;6.03;4.07;;;17.80;95.80;;;;;;5026928;28;20225;-81
2023/07/21 15:53:26;;;;;;;6.82;3.70;;;18.00;95.60;;;;;;5023816;28;20694;-83
2023/07/21 15:55:52;;;;;;;7.28;3.70;;;17.90;95.40;;;;;;5026656;28;20555;-84
2023/07/21 15:58:19;;;;;;;4.55;3.88;;;18.00;95.60;;;;;;5021354;28;21259;-85
2023/07/21 16:00:46;;;;;;;5.07;3.75;;;18.00;95.00;;;;;;5030462;28;20232;-82
2023/07/21 16:03:13;;;;;;;5.25;3.47;;;18.10;94.50;;;;;;5027752;28;20199;-86
2023/07/21 16:05:40;;;;;;;3.83;3.40;;;18.10;94.80;;;;;;5026332;28;20203;-83
2023/07/21 16:08:07;;;;;;;4.88;3.50;;;18.10;94.40;;;;;;5021522;28;20719;-83
2023/07/21 16:10:35;;;;;;;5.15;3.97;;;18.20;94.30;;;;;;5022016;28;20195;-84
2023/07/21 16:13:02;;;;;;;4.80;3.95;;;18.10;94.20;;;;;;5028610;28;20222;-83
2023/07/21 16:15:29;;;;;;;6.93;4.60;;;18.20;95.00;;;;;;5027594;28;20310;-82
2023/07/21 16:17:56;;;;;;;5.25;4.57;;;18.10;95.70;;;;;;5028346;28;20244;-83
2023/07/21 16:20:23;;;;;;;6.32;4.53;;;18.30;96.10;;;;;;5007006;28;21426;-84
2023/07/21 16:22:50;;;;;;;6.53;4.45;;;18.40;95.00;;;;;;5033507;28;20256;-85
2023/07/21 16:25:16;;;;;;;4.55;4.07;;;18.40;94.70;;;;;;5029210;28;20210;-82
2023/07/21 16:27:45;;;;;;;4.85;4.30;;;18.50;94.40;;;;;;5027918;28;20584;-84
2023/07/21 16:30:12;;;;;;;4.65;3.40;;;18.50;94.10;;;;;;5029498;28;20195;-86
2023/07/21 16:32:39;;;;;;;5.20;4.03;;;18.40;94.00;;;;;;5022550;28;20689;-85
2023/07/21 16:35:07;;;;;;;5.68;4.22;;;18.40;94.50;;;;;;5023195;28;20213;-84